createdAt,value
2022-11-14T00:00:33.345Z,52.50
2022-11-14T00:03:18.393Z,40.00
2022-11-14T00:06:06.555Z,45.80
2022-11-14T00:08:51.646Z,40.10
2022-11-14T00:11:37.172Z,49.40
2022-11-14T00:14:22.037Z,47.00
2022-11-14T00:17:07.215Z,39.80
2022-11-14T00:19:52.119Z,48.40
2022-11-14T00:22:37.061Z,34.30
2022-11-14T00:25:22.545Z,44.80
2022-11-14T00:28:08.360Z,46.80
2022-11-14T00:30:53.743Z,41.80
2022-11-14T00:33:38.444Z,47.00
2022-11-14T00:36:23.330Z,50.30
2022-11-14T00:39:13.107Z,48.30
2022-11-14T00:41:58.344Z,44.70
2022-11-14T00:44:43.986Z,45.60
2022-11-14T00:47:29.281Z,48.90
2022-11-14T00:50:15.833Z,49.20
2022-11-14T00:53:00.752Z,33.90
2022-11-14T00:55:45.569Z,43.50
2022-11-14T00:58:30.713Z,46.90
2022-11-14T01:01:16.669Z,46.80
2022-11-14T01:04:02.026Z,44.10
2022-11-14T01:06:47.032Z,48.70
2022-11-14T01:09:32.732Z,47.10
2022-11-14T01:12:17.591Z,44.10
2022-11-14T01:15:03.176Z,44.60
2022-11-14T01:17:48.490Z,45.30
2022-11-14T01:20:33.367Z,50.40
2022-11-14T01:23:18.826Z,49.20
2022-11-14T01:26:07.483Z,50.30
2022-11-14T01:28:53.169Z,48.90
2022-11-14T01:31:37.948Z,48.40
2022-11-14T01:34:23.398Z,46.70
2022-11-14T01:37:08.866Z,46.80
2022-11-14T01:39:54.008Z,48.60
2022-11-14T01:42:39.575Z,48.50
2022-11-14T01:45:49.093Z,52.40
2022-11-14T01:48:34.253Z,49.80
2022-11-14T01:51:23.016Z,51.90
2022-11-14T01:54:16.169Z,48.00
2022-11-14T01:57:04.244Z,49.10
2022-11-14T01:59:52.853Z,54.60
2022-11-14T02:02:38.318Z,51.40
2022-11-14T02:05:23.981Z,51.90
2022-11-14T02:08:13.312Z,50.00
2022-11-14T02:10:58.257Z,50.70
2022-11-14T02:13:43.932Z,51.40
2022-11-14T02:16:29.005Z,53.30
2022-11-14T02:19:15.220Z,55.80
2022-11-14T02:25:04.670Z,52.80
2022-11-14T02:27:50.962Z,52.80
2022-11-14T02:30:36.165Z,54.10
2022-11-14T02:33:20.949Z,56.20
2022-11-14T02:36:06.863Z,50.00
2022-11-14T02:38:52.236Z,53.40
2022-11-14T02:41:37.296Z,55.90
2022-11-14T02:44:22.989Z,50.00
2022-11-14T02:47:08.307Z,56.60
2022-11-14T02:49:53.823Z,55.70
2022-11-14T02:52:38.736Z,57.50
2022-11-14T02:55:23.950Z,56.10
2022-11-14T02:58:09.045Z,55.60
2022-11-14T03:01:19.237Z,56.20
2022-11-14T03:03:59.404Z,58.20
2022-11-14T03:06:44.384Z,55.60
2022-11-14T03:09:29.793Z,58.00
2022-11-14T03:12:18.630Z,57.10
2022-11-14T03:15:07.738Z,53.20
2022-11-14T03:17:52.663Z,57.10
2022-11-14T03:20:38.795Z,57.30
2022-11-14T03:23:24.014Z,51.80
2022-11-14T03:26:10.863Z,53.50
2022-11-14T03:28:55.786Z,55.70
2022-11-14T03:31:40.765Z,58.90
2022-11-14T03:34:25.850Z,54.90
2022-11-14T03:37:11.379Z,53.10
2022-11-14T03:39:56.719Z,54.20
2022-11-14T03:42:42.024Z,57.50
2022-11-14T03:45:27.237Z,53.60
2022-11-14T03:48:13.097Z,54.00
2022-11-14T03:50:58.405Z,56.00
2022-11-14T03:53:43.340Z,58.10
2022-11-14T03:56:28.401Z,54.00
2022-11-14T03:59:13.199Z,54.70
2022-11-14T04:01:58.326Z,54.00
2022-11-14T04:04:43.087Z,53.90
2022-11-14T04:07:27.870Z,46.00
2022-11-14T04:10:13.065Z,54.50
2022-11-14T04:12:57.812Z,56.50
2022-11-14T04:15:42.871Z,55.20
2022-11-14T04:18:28.633Z,52.40
2022-11-14T04:21:13.982Z,57.50
2022-11-14T04:23:58.728Z,56.20
2022-11-14T04:26:43.454Z,49.20
2022-11-14T04:29:28.492Z,55.30
2022-11-14T04:32:13.804Z,55.10
2022-11-14T04:34:58.730Z,52.10
2022-11-14T04:37:44.027Z,54.20
2022-11-14T04:40:29.310Z,54.20
2022-11-14T04:43:14.031Z,56.50
2022-11-14T04:45:59.007Z,51.80
2022-11-14T04:48:43.864Z,54.30
2022-11-14T04:51:29.026Z,54.80
2022-11-14T04:54:14.254Z,51.30
2022-11-14T04:56:59.375Z,52.10
2022-11-14T04:59:44.112Z,53.80
2022-11-14T05:02:32.335Z,55.80
2022-11-14T05:05:17.114Z,55.60
2022-11-14T05:08:02.206Z,54.10
2022-11-14T05:10:47.334Z,54.60
2022-11-14T05:13:32.600Z,50.60
2022-11-14T05:16:17.862Z,51.10
2022-11-14T05:19:02.664Z,53.20
2022-11-14T05:21:47.843Z,51.10
2022-11-14T05:24:33.457Z,51.20
2022-11-14T05:27:18.382Z,52.40
2022-11-14T05:30:03.903Z,53.50
2022-11-14T05:32:51.397Z,56.20
2022-11-14T05:35:36.089Z,51.60
2022-11-14T05:38:21.908Z,52.30
2022-11-14T05:41:09.699Z,50.70
2022-11-14T05:43:55.102Z,52.10
2022-11-14T05:46:42.715Z,49.00
2022-11-14T05:49:28.144Z,51.60
2022-11-14T05:52:15.374Z,52.50
2022-11-14T05:55:01.000Z,52.00
2022-11-14T05:57:48.651Z,49.20
2022-11-14T06:00:40.895Z,51.30
2022-11-14T06:03:32.459Z,50.40
2022-11-14T06:06:19.620Z,52.00
2022-11-14T06:09:04.676Z,45.70
2022-11-14T06:11:50.569Z,48.50
2022-11-14T06:14:35.707Z,48.00
2022-11-14T06:17:20.635Z,47.60
2022-11-14T06:20:07.099Z,49.40
2022-11-14T06:22:54.211Z,50.20
2022-11-14T06:25:39.327Z,46.80
2022-11-14T06:28:24.098Z,42.80
2022-11-14T06:31:08.916Z,46.50
2022-11-14T06:33:54.287Z,47.90
2022-11-14T06:36:39.427Z,45.80
2022-11-14T06:39:24.741Z,41.10
2022-11-14T06:42:09.969Z,40.70
2022-11-14T06:44:54.865Z,45.70
2022-11-14T06:47:41.869Z,43.40
2022-11-14T06:50:26.941Z,44.10
2022-11-14T06:53:12.061Z,45.70
2022-11-14T06:56:04.945Z,46.80
2022-11-14T06:58:50.199Z,42.50
2022-11-14T07:01:34.991Z,44.00
2022-11-14T07:04:19.911Z,46.00
2022-11-14T07:07:05.245Z,45.50
2022-11-14T07:09:50.341Z,44.50
2022-11-14T07:12:35.538Z,46.50
2022-11-14T07:15:20.622Z,47.80
2022-11-14T07:18:05.783Z,44.70
2022-11-14T07:20:57.841Z,44.20
2022-11-14T07:23:43.501Z,47.80
2022-11-14T07:26:28.985Z,44.20
2022-11-14T07:29:14.170Z,43.30
2022-11-14T07:31:59.514Z,44.40
2022-11-14T07:34:45.267Z,43.80
2022-11-14T07:37:30.837Z,43.50
2022-11-14T07:40:17.139Z,43.90
2022-11-14T07:43:03.399Z,42.10
2022-11-14T07:45:49.401Z,44.40
2022-11-14T07:48:35.059Z,43.00
2022-11-14T07:51:20.335Z,42.00
2022-11-14T07:54:05.646Z,45.80
2022-11-14T07:56:50.959Z,47.10
2022-11-14T07:59:36.235Z,43.50
2022-11-14T08:02:21.408Z,43.50
2022-11-14T08:05:07.115Z,43.20
2022-11-14T08:07:52.583Z,44.20
2022-11-14T08:10:37.522Z,43.60
2022-11-14T08:13:32.299Z,45.40
2022-11-14T08:16:18.218Z,45.20
2022-11-14T08:19:03.227Z,45.80
2022-11-14T08:21:48.472Z,45.70
2022-11-14T08:24:33.314Z,47.80
2022-11-14T08:27:18.138Z,47.70
2022-11-14T08:30:03.785Z,46.00
2022-11-14T08:32:50.559Z,49.10
2022-11-14T08:35:35.705Z,50.00
2022-11-14T08:38:21.122Z,47.10
2022-11-14T08:41:06.711Z,47.20
2022-11-14T08:43:51.684Z,49.60
2022-11-14T08:46:39.137Z,49.10
2022-11-14T08:49:24.039Z,47.00
2022-11-14T08:52:13.715Z,54.90
2022-11-14T08:55:02.065Z,49.80
2022-11-14T08:57:49.698Z,46.30
2022-11-14T09:00:35.271Z,43.70
2022-11-14T09:03:20.044Z,45.30
2022-11-14T09:06:05.586Z,47.80
2022-11-14T09:08:50.466Z,49.50
2022-11-14T09:11:35.449Z,43.30
2022-11-14T09:14:20.427Z,44.30
2022-11-14T09:17:06.225Z,45.80
2022-11-14T09:19:51.778Z,45.80
2022-11-14T09:22:36.867Z,45.00
2022-11-14T09:25:22.313Z,43.80
2022-11-14T09:28:08.755Z,47.00
2022-11-14T09:31:04.637Z,47.40
2022-11-14T09:33:50.181Z,47.50
2022-11-14T09:36:35.632Z,46.50
2022-11-14T09:39:20.662Z,45.90
2022-11-14T09:42:37.751Z,46.60
2022-11-14T09:45:22.761Z,43.60
2022-11-14T09:48:13.802Z,43.70
2022-11-14T09:51:13.135Z,44.20
2022-11-14T09:54:07.961Z,45.70
2022-11-14T09:56:53.841Z,41.50
2022-11-14T09:59:38.870Z,42.80
2022-11-14T10:02:31.844Z,41.10
2022-11-14T10:05:45.578Z,40.90
2022-11-14T10:08:50.014Z,39.70
2022-11-14T10:11:39.473Z,41.40
2022-11-14T10:14:27.574Z,43.30
2022-11-14T10:17:23.092Z,41.60
2022-11-14T10:20:43.878Z,40.30
2022-11-14T10:23:43.103Z,39.50
2022-11-14T10:26:35.049Z,40.00
2022-11-14T10:30:10.166Z,41.70
2022-11-14T10:33:04.586Z,35.90
2022-11-14T10:36:12.311Z,39.70
2022-11-14T10:39:40.261Z,41.60
2022-11-14T10:42:36.194Z,42.90
2022-11-14T10:45:37.204Z,39.00
2022-11-14T10:48:41.446Z,39.40
2022-11-14T10:51:39.613Z,40.30
2022-11-14T10:54:40.463Z,41.20
2022-11-14T10:57:28.223Z,41.90
2022-11-14T11:00:19.045Z,38.40
2022-11-14T11:03:04.527Z,40.10
2022-11-14T11:05:51.395Z,39.80
2022-11-14T11:09:02.019Z,40.60
2022-11-14T11:12:02.494Z,41.80
2022-11-14T11:14:52.771Z,38.90
2022-11-14T11:17:43.008Z,40.60
2022-11-14T11:20:40.552Z,40.00
2022-11-14T11:23:27.039Z,40.60
2022-11-14T11:26:31.740Z,38.70
2022-11-14T11:29:19.215Z,37.90
2022-11-14T11:32:04.503Z,40.80
2022-11-14T11:34:51.442Z,42.40
2022-11-14T11:37:41.719Z,42.50
2022-11-14T11:40:28.386Z,39.80
2022-11-14T11:43:40.656Z,37.80
2022-11-14T11:46:36.032Z,42.60
2022-11-14T11:49:29.538Z,37.80
2022-11-14T11:52:39.208Z,45.90
2022-11-14T11:55:27.844Z,36.80
2022-11-14T11:58:35.698Z,42.40
2022-11-14T12:01:21.144Z,40.60
2022-11-14T12:04:06.511Z,42.10
2022-11-14T12:07:11.763Z,40.60
2022-11-14T12:10:13.888Z,38.70
2022-11-14T12:13:07.860Z,39.30
2022-11-14T12:16:19.477Z,39.70
2022-11-14T12:19:04.840Z,39.70
2022-11-14T12:22:27.801Z,35.90
2022-11-14T12:25:28.429Z,38.90
2022-11-14T12:28:19.654Z,39.70
2022-11-14T12:31:09.870Z,39.00
2022-11-14T12:34:04.287Z,37.20
2022-11-14T12:36:50.527Z,36.30
2022-11-14T12:39:35.554Z,36.20
2022-11-14T12:42:24.000Z,37.20
2022-11-14T12:45:39.452Z,36.60
2022-11-14T12:48:28.367Z,35.10
2022-11-14T12:51:45.633Z,34.40
2022-11-14T12:54:45.630Z,34.40
2022-11-14T12:58:06.499Z,34.60
2022-11-14T13:00:59.227Z,34.40
2022-11-14T13:04:02.466Z,35.80
2022-11-14T13:07:05.483Z,34.40
2022-11-14T13:10:09.088Z,33.20
2022-11-14T13:13:25.583Z,32.90
2022-11-14T13:16:49.018Z,33.90
2022-11-14T13:19:54.923Z,34.80
2022-11-14T13:22:42.187Z,33.70
2022-11-14T13:25:27.459Z,32.30
2022-11-14T13:28:38.436Z,32.20
2022-11-14T13:31:44.800Z,32.00
2022-11-14T13:34:45.925Z,31.90
2022-11-14T13:38:12.685Z,31.10
2022-11-14T13:41:46.166Z,31.40
2022-11-14T13:44:50.974Z,32.90
2022-11-14T13:47:48.327Z,31.60
2022-11-14T13:50:36.754Z,32.90
2022-11-14T13:53:27.520Z,33.80
2022-11-14T13:56:30.571Z,30.90
2022-11-14T13:59:50.896Z,32.40
2022-11-14T14:02:53.829Z,33.90
2022-11-14T14:06:10.892Z,32.90
2022-11-14T14:09:14.968Z,31.50
2022-11-14T14:12:18.266Z,31.20
2022-11-14T14:15:31.285Z,32.70
2022-11-14T14:18:48.772Z,32.60
2022-11-14T14:21:47.415Z,35.70
2022-11-14T14:24:41.488Z,37.60
2022-11-14T14:27:36.733Z,36.50
2022-11-14T14:30:22.173Z,36.00
2022-11-14T14:33:08.023Z,39.60
2022-11-14T14:35:53.870Z,38.50
2022-11-14T14:38:40.605Z,41.20
2022-11-14T14:41:31.217Z,42.10
2022-11-14T14:44:31.472Z,44.00
2022-11-14T14:47:39.006Z,45.10
2022-11-14T14:50:28.306Z,48.20
2022-11-14T14:53:25.035Z,50.30
2022-11-14T14:56:24.297Z,46.50
2022-11-14T14:59:22.502Z,50.80
2022-11-14T15:02:17.940Z,48.60
2022-11-14T15:05:04.569Z,51.30
2022-11-14T15:07:52.887Z,51.40
2022-11-14T15:10:38.889Z,56.80
2022-11-14T15:13:25.868Z,61.00
2022-11-14T15:16:11.655Z,50.20
2022-11-14T15:18:57.975Z,58.70
2022-11-14T15:21:43.440Z,52.10
2022-11-14T15:24:29.900Z,56.50
2022-11-14T15:27:18.248Z,66.20
2022-11-14T15:30:07.496Z,66.00
2022-11-14T15:32:55.946Z,45.10
2022-11-14T15:35:41.304Z,50.60
2022-11-14T15:38:43.604Z,43.50
2022-11-14T15:41:33.129Z,54.80
2022-11-14T15:44:32.999Z,61.30
2022-11-14T15:47:26.577Z,71.10
2022-11-14T15:50:12.132Z,64.00
2022-11-14T15:53:03.736Z,62.20
2022-11-14T15:55:49.996Z,61.00
2022-11-14T15:58:36.382Z,55.80
2022-11-14T16:01:25.810Z,58.00
2022-11-14T16:04:15.860Z,61.30
2022-11-14T16:07:04.334Z,54.10
2022-11-14T16:09:49.922Z,56.30
2022-11-14T16:12:35.999Z,59.00
2022-11-14T16:15:21.630Z,62.60
2022-11-14T16:18:07.027Z,65.10
2022-11-14T16:20:58.219Z,57.10
2022-11-14T16:23:43.484Z,56.50
2022-11-14T16:26:29.760Z,59.40
2022-11-14T16:29:15.523Z,50.00
2022-11-14T16:32:01.217Z,54.20
2022-11-14T16:34:46.192Z,52.70
2022-11-14T16:37:32.619Z,54.40
2022-11-14T16:40:24.949Z,56.60
2022-11-14T16:43:13.355Z,60.50
2022-11-14T16:46:02.986Z,65.60
2022-11-14T16:48:48.669Z,60.30
2022-11-14T16:51:48.332Z,67.70
2022-11-14T16:54:35.284Z,73.10
2022-11-14T16:57:20.827Z,72.80
2022-11-14T17:00:08.806Z,75.20
2022-11-14T17:02:54.439Z,72.40
2022-11-14T17:05:49.099Z,64.70
2022-11-14T17:08:34.691Z,70.20
2022-11-14T17:11:19.860Z,67.20
2022-11-14T17:14:05.526Z,64.50
2022-11-14T17:16:50.930Z,57.10
2022-11-14T17:19:45.117Z,61.00
2022-11-14T17:22:30.538Z,63.80
2022-11-14T17:25:16.561Z,65.40
2022-11-14T17:28:03.142Z,64.50
2022-11-14T17:30:48.814Z,60.40
2022-11-14T17:33:34.658Z,60.00
2022-11-14T17:36:21.795Z,62.10
2022-11-14T17:39:06.944Z,63.50
2022-11-14T17:41:52.091Z,62.90
2022-11-14T17:44:37.128Z,58.90
2022-11-14T17:47:22.440Z,60.40
2022-11-14T17:50:08.939Z,60.70
2022-11-14T17:52:54.235Z,68.90
2022-11-14T17:55:39.403Z,68.90
2022-11-14T17:58:30.822Z,64.70
2022-11-14T18:01:20.636Z,58.10
2022-11-14T18:04:06.954Z,62.90
2022-11-14T18:06:54.587Z,58.20
2022-11-14T18:09:41.268Z,56.10
2022-11-14T18:12:27.659Z,55.00
2022-11-14T18:15:14.830Z,55.70
2022-11-14T18:18:01.175Z,52.20
2022-11-14T18:20:47.182Z,52.80
2022-11-14T18:23:32.760Z,54.60
2022-11-14T18:26:21.168Z,54.40
2022-11-14T18:29:07.410Z,48.90
2022-11-14T18:31:53.180Z,50.90
2022-11-14T18:34:40.895Z,54.20
2022-11-14T18:37:29.965Z,53.50
2022-11-14T18:40:16.933Z,59.10
2022-11-14T18:43:03.389Z,58.20
2022-11-14T18:45:52.875Z,62.90
2022-11-14T18:48:40.131Z,57.70
2022-11-14T18:51:28.641Z,63.00
2022-11-14T18:54:16.068Z,64.50
2022-11-14T18:57:02.868Z,61.70
2022-11-14T18:59:51.622Z,56.20
2022-11-14T19:02:37.234Z,56.70
2022-11-14T19:05:23.334Z,62.30
2022-11-14T19:08:09.155Z,51.00
2022-11-14T19:11:03.994Z,58.70
2022-11-14T19:13:51.503Z,63.30
2022-11-14T19:16:38.859Z,57.80
2022-11-14T19:19:24.884Z,64.30
2022-11-14T19:22:10.303Z,64.90
2022-11-14T19:24:57.815Z,60.10
2022-11-14T19:30:44.897Z,66.90
2022-11-14T19:33:32.637Z,70.70
2022-11-14T19:36:45.323Z,67.20
2022-11-14T19:39:30.360Z,79.20
2022-11-14T19:42:17.250Z,75.80
2022-11-14T19:45:04.231Z,69.60
2022-11-14T19:47:51.448Z,66.60
2022-11-14T19:50:39.210Z,62.10
2022-11-14T19:53:26.679Z,56.20
2022-11-14T19:56:18.341Z,59.70
2022-11-14T19:59:11.005Z,65.20
2022-11-14T20:02:00.493Z,66.60
2022-11-14T20:04:48.018Z,58.50
2022-11-14T20:07:37.845Z,63.90
2022-11-14T20:10:24.962Z,65.10
2022-11-14T20:13:11.925Z,61.40
2022-11-14T20:16:00.553Z,54.80
2022-11-14T20:18:58.637Z,60.90
2022-11-14T20:21:46.575Z,62.90
2022-11-14T20:24:34.322Z,64.40
2022-11-14T20:27:21.774Z,50.10
2022-11-14T20:30:09.096Z,49.60
2022-11-14T20:32:56.548Z,49.50
2022-11-14T20:35:45.047Z,49.60
2022-11-14T20:38:33.255Z,51.70
2022-11-14T20:41:21.174Z,57.30
2022-11-14T20:44:08.966Z,58.20
2022-11-14T20:46:57.359Z,52.70
2022-11-14T20:49:47.178Z,52.10
2022-11-14T20:52:35.398Z,55.40
2022-11-14T20:55:21.702Z,55.20
2022-11-14T20:58:09.166Z,50.80
2022-11-14T21:00:56.801Z,54.80
2022-11-14T21:03:44.044Z,54.90
2022-11-14T21:06:30.610Z,54.80
2022-11-14T21:09:19.461Z,53.90
2022-11-14T21:12:06.961Z,57.50
2022-11-14T21:14:53.893Z,62.20
2022-11-14T21:17:40.756Z,53.60
2022-11-14T21:20:27.523Z,60.00
2022-11-14T21:23:14.550Z,57.50
2022-11-14T21:26:11.188Z,58.90
2022-11-14T21:29:02.227Z,52.80
2022-11-14T21:31:49.438Z,52.30
2022-11-14T21:34:36.372Z,52.90
2022-11-14T21:37:22.967Z,58.10
2022-11-14T21:40:09.984Z,52.90
2022-11-14T21:42:56.565Z,48.30
2022-11-14T21:45:43.198Z,48.70
2022-11-14T21:48:31.443Z,52.40
2022-11-14T21:51:24.120Z,46.50
2022-11-14T21:54:11.291Z,49.70
2022-11-14T21:57:03.142Z,45.60
2022-11-14T21:59:52.475Z,45.70
2022-11-14T22:02:57.823Z,44.10
2022-11-14T22:05:44.399Z,45.80
2022-11-14T22:08:31.189Z,46.50
2022-11-14T22:11:18.086Z,45.20
2022-11-14T22:14:05.084Z,49.60
2022-11-14T22:16:51.941Z,46.90
2022-11-14T22:19:38.437Z,50.10
2022-11-14T22:22:25.286Z,48.30
2022-11-14T22:25:11.944Z,52.20
2022-11-14T22:27:58.152Z,51.60
2022-11-14T22:30:45.015Z,53.40
2022-11-14T22:33:34.219Z,52.50
2022-11-14T22:36:25.623Z,54.40
2022-11-14T22:39:12.023Z,54.00
2022-11-14T22:41:58.789Z,53.70
2022-11-14T22:44:45.345Z,59.20
2022-11-14T22:47:31.984Z,60.50
2022-11-14T22:50:19.185Z,65.60
2022-11-14T22:53:05.862Z,58.50
2022-11-14T22:55:52.721Z,57.10
2022-11-14T22:58:41.785Z,52.40
2022-11-14T23:01:31.536Z,46.20
2022-11-14T23:04:18.260Z,43.10
2022-11-14T23:07:04.885Z,47.30
2022-11-14T23:09:51.567Z,47.30
2022-11-14T23:12:38.287Z,44.70
2022-11-14T23:15:25.507Z,53.60
2022-11-14T23:18:12.852Z,48.00
2022-11-14T23:21:07.017Z,47.00
2022-11-14T23:23:55.263Z,45.40
2022-11-14T23:26:41.697Z,45.60
2022-11-14T23:29:28.581Z,48.80
2022-11-14T23:32:15.458Z,45.40
2022-11-14T23:35:01.729Z,47.70
2022-11-14T23:37:48.437Z,51.80
2022-11-14T23:40:34.961Z,45.30
2022-11-14T23:43:21.624Z,43.20
2022-11-14T23:46:08.391Z,48.20
2022-11-14T23:48:55.240Z,41.30
2022-11-14T23:51:41.658Z,39.90
2022-11-14T23:54:28.808Z,43.90
2022-11-14T23:57:15.687Z,45.50
